TimeMST,TemperatureF,Dew PointF,Humidity,Sea Level PressureIn,VisibilityMPH,Wind Direction,Wind SpeedMPH,Gust SpeedMPH,PrecipitationIn,Events,Conditions,WindDirDegrees,DateUTC
12:51 AM,-6.0,-9.9,83,30.59,-9999.0,Calm,Calm,-,N/A,,Unknown,0,2013-01-03 07:51:00
1:51 AM,-7.1,-11.0,83,30.57,-9999.0,Calm,Calm,-,N/A,,Unknown,0,2013-01-03 08:51:00
2:51 AM,-8.0,-11.9,83,30.58,-9999.0,Calm,Calm,-,N/A,,Unknown,0,2013-01-03 09:51:00
3:51 AM,-9.0,-13.0,83,30.58,-9999.0,Calm,Calm,-,N/A,,Unknown,0,2013-01-03 10:51:00
4:51 AM,-7.1,-11.0,83,30.58,-9999.0,SE,5.8,-,N/A,,Unknown,130,2013-01-03 11:51:00
5:51 AM,-11.9,-17.0,78,30.61,-9999.0,Calm,Calm,-,N/A,,Unknown,0,2013-01-03 12:51:00
6:51 AM,-11.0,-16.1,78,30.63,-9999.0,Calm,Calm,-,N/A,,Unknown,0,2013-01-03 13:51:00
7:51 AM,-9.9,-15.0,78,30.64,-9999.0,Calm,Calm,-,N/A,,Unknown,0,2013-01-03 14:51:00
8:51 AM,-9.9,-15.0,78,30.66,-9999.0,Calm,Calm,-,N/A,,Unknown,0,2013-01-03 15:51:00
9:51 AM,-9.0,-13.0,83,30.68,-9999.0,Calm,Calm,-,N/A,,Unknown,0,2013-01-03 16:51:00
10:51 AM,-0.9,-4.0,87,30.64,-9999.0,Calm,Calm,-,N/A,,Unknown,0,2013-01-03 17:51:00
11:51 AM,1.0,-4.0,79,30.61,-9999.0,Calm,Calm,-,N/A,,Unknown,0,2013-01-03 18:51:00
1:51 PM,12.9,1.9,62,30.50,-9999.0,Calm,Calm,-,N/A,,Unknown,0,2013-01-03 20:51:00
2:51 PM,15.1,3.9,61,30.48,-9999.0,Calm,Calm,-,N/A,,Unknown,0,2013-01-03 21:51:00
3:51 PM,15.1,3.9,61,30.48,-9999.0,Calm,Calm,-,N/A,,Unknown,0,2013-01-03 22:51:00
4:51 PM,10.0,3.0,73,30.51,-9999.0,Calm,Calm,-,N/A,,Unknown,0,2013-01-03 23:51:00
5:51 PM,5.0,1.9,87,30.56,-9999.0,SSE,3.5,-,N/A,,Unknown,150,2013-01-04 00:51:00
6:51 PM,1.9,-0.0,91,30.58,-9999.0,SSE,3.5,-,N/A,,Unknown,160,2013-01-04 01:51:00
7:51 PM,1.0,-2.0,87,30.58,-9999.0,Calm,Calm,-,N/A,,Unknown,0,2013-01-04 02:51:00
8:51 PM,-0.9,-5.1,83,30.59,-9999.0,Calm,Calm,-,N/A,,Unknown,0,2013-01-04 03:51:00
9:51 PM,-4.0,-7.1,87,30.61,-9999.0,Calm,Calm,-,N/A,,Unknown,0,2013-01-04 04:51:00
10:51 PM,-4.0,-7.1,87,30.58,-9999.0,Calm,Calm,-,N/A,,Unknown,0,2013-01-04 05:51:00
11:51 PM,-6.0,-9.9,83,30.60,-9999.0,Calm,Calm,-,N/A,,Unknown,0,2013-01-04 06:51:00